^^
Station Historical Data
Daily Summary for June 19, 2017 Units:  English    Metric   Both
« Previous Day
Next Day »
Daily Weekly Monthly Yearly Custom
  High: Low: Average:
Temperature: 86.1 °F 68.6 °F 75.9 °F
Dew Point: 75.4 °F 67.4 °F 71.5 °F
Humidity: 97% 66% 87%
Wind Speed: 9.0mph 0.0mph 2.4mph
Wind Gust: 21.0mph - -
Wind- - SSW
Pressure: 29.88 in 29.74 in -
Precipitation: 0.44 in    
Historical Graphs
 
 
Tabular Data for June 19, 2017
Time Temperature Dew Point Pressure Wind Wind Speed Wind Gust Humidity Rainfall Rate (Hourly) Conditions
00:00 74.3 °F 71.5 °F 29.83 in SW 1.0 mph 6.0 mph 91% 0.00 in RA
00:15 74.4 °F 71.6 °F 29.83 in SSW 5.0 mph 9.0 mph 91% 0.00 in FEW
00:30 74.7 °F 71.9 °F 29.83 in SSW 2.0 mph 6.0 mph 91% 0.00 in FEW
00:45 74.8 °F 72.0 °F 29.82 in South 3.0 mph 9.0 mph 91% 0.00 in FEW
01:00 74.6 °F 71.8 °F 29.82 in Calm   5.0 mph 91% 0.00 in FEW
01:15 74.3 °F 71.5 °F 29.82 in SW 1.0 mph 6.0 mph 91% 0.00 in FEW
01:30 74.0 °F 71.2 °F 29.82 in SSW 1.0 mph 7.0 mph 91% 0.00 in FEW
01:45 73.8 °F 71.3 °F 29.82 in SSW 3.0 mph 8.0 mph 92% 0.00 in FEW
02:00 74.0 °F 71.5 °F 29.82 in SSW 2.0 mph 7.0 mph 92% 0.00 in FEW
02:15 73.8 °F 71.3 °F 29.82 in SSW 1.0 mph 5.0 mph 92% 0.00 in OVC
02:30 73.5 °F 71.0 °F 29.82 in SSW 1.0 mph 6.0 mph 92% 0.00 in OVC
02:45 73.1 °F 71.0 °F 29.82 in Calm   4.0 mph 93% 0.00 in OVC
03:00 72.8 °F 70.7 °F 29.82 in South 2.0 mph 5.0 mph 93% 0.00 in OVC
03:15 72.6 °F 70.8 °F 29.81 in Calm   3.0 mph 94% 0.00 in BKN
03:30 72.5 °F 70.7 °F 29.81 in Calm   3.0 mph 94% 0.00 in BKN
03:45 72.5 °F 70.7 °F 29.81 in Calm   4.0 mph 94% 0.00 in BKN
04:00 72.5 °F 70.7 °F 29.81 in South 1.0 mph 5.0 mph 94% 0.00 in BKN
04:15 72.7 °F 70.9 °F 29.81 in South 1.0 mph 5.0 mph 94% 0.00 in SCT
04:30 72.9 °F 71.1 °F 29.82 in South 1.0 mph 6.0 mph 94% 0.00 in SCT
04:45 72.7 °F 70.6 °F 29.82 in SSW 2.0 mph 3.0 mph 93% 0.00 in SCT
05:15 72.0 °F 70.2 °F 29.82 in Calm   3.0 mph 94% 0.00 in FEW
05:30 71.9 °F 70.1 °F 29.83 in Calm   5.0 mph 94% 0.00 in FEW
05:45 71.8 °F 70.0 °F 29.83 in SW 1.0 mph 4.0 mph 94% 0.00 in FEW
06:00 71.6 °F 69.8 °F 29.83 in SSW 1.0 mph 5.0 mph 94% 0.00 in FEW
06:15 71.7 °F 69.9 °F 29.83 in SW 2.0 mph 5.0 mph 94% 0.00 in SCT
06:30 71.8 °F 70.0 °F 29.84 in SSW 1.0 mph 6.0 mph 94% 0.00 in SCT
07:00 72.6 °F 70.8 °F 29.84 in SSW 2.0 mph 7.0 mph 94% 0.00 in SCT
07:15 73.3 °F 71.2 °F 29.84 in SW 2.0 mph 6.0 mph 93% 0.00 in SCT
07:30 74.2 °F 71.7 °F 29.84 in SW 2.0 mph 7.0 mph 92% 0.00 in SCT
07:45 74.9 °F 72.1 °F 29.84 in SSW 2.0 mph 6.0 mph 91% 0.00 in SCT
08:00 75.3 °F 72.5 °F 29.85 in SSW 1.0 mph 6.0 mph 91% 0.00 in SCT
08:15 76.0 °F 73.2 °F 29.85 in South 3.0 mph 10.0 mph 91% 0.00 in BKN
08:30 76.9 °F 73.7 °F 29.84 in SW 1.0 mph 7.0 mph 90% 0.00 in BKN
08:45 77.7 °F 73.9 °F 29.84 in SSW 3.0 mph 8.0 mph 88% 0.00 in BKN
09:00 78.3 °F 74.1 °F 29.85 in South 5.0 mph 15.0 mph 87% 0.00 in BKN
09:15 79.1 °F 74.6 °F 29.85 in SSW 3.0 mph 8.0 mph 86% 0.00 in BKN
09:30 80.2 °F 74.6 °F 29.85 in South 2.0 mph 12.0 mph 83% 0.00 in BKN
09:45 81.0 °F 75.0 °F 29.84 in SW 5.0 mph 10.0 mph 82% 0.00 in BKN
10:00 81.5 °F 74.7 °F 29.84 in SSW 7.0 mph 13.0 mph 80% 0.00 in BKN
10:15 81.9 °F 75.1 °F 29.84 in SW 3.0 mph 12.0 mph 80% 0.00 in SCT
10:30 83.0 °F 75.0 °F 29.83 in SSW 3.0 mph 13.0 mph 77% 0.00 in SCT
10:45 83.6 °F 74.8 °F 29.83 in SSW 5.0 mph 14.0 mph 75% 0.00 in SCT
11:00 83.0 °F 74.7 °F 29.82 in SSW 2.0 mph 12.0 mph 76% 0.00 in SCT
11:15 84.1 °F 74.9 °F 29.81 in South 2.0 mph 12.0 mph 74% 0.00 in SCT
11:30 84.5 °F 74.5 °F 29.81 in SW 8.0 mph 15.0 mph 72% 0.00 in SCT
11:45 84.6 °F 75.4 °F 29.81 in SSW 3.0 mph 15.0 mph 74% 0.00 in SCT
12:00 83.2 °F 74.5 °F 29.81 in SW 1.0 mph 12.0 mph 75% 0.00 in SCT
12:15 83.4 °F 74.6 °F 29.80 in SW 2.0 mph 13.0 mph 75% 0.00 in SCT
12:30 83.6 °F 74.0 °F 29.79 in SSW 3.0 mph 13.0 mph 73% 0.00 in SCT
12:45 85.1 °F 74.6 °F 29.79 in SSW 5.0 mph 14.0 mph 71% 0.00 in SCT
13:00 84.7 °F 73.8 °F 29.79 in South 6.0 mph 21.0 mph 70% 0.00 in SCT
13:15 83.5 °F 73.1 °F 29.80 in SSW 5.0 mph 15.0 mph 71% 0.00 in SCT
13:30 83.5 °F 74.3 °F 29.79 in SSW 2.0 mph 9.0 mph 74% 0.00 in SCT
13:45 85.3 °F 74.9 °F 29.78 in SW 7.0 mph 12.0 mph 71% 0.00 in SCT
14:00 85.2 °F 74.7 °F 29.77 in SW 3.0 mph 13.0 mph 71% 0.00 in SCT
14:15 86.1 °F 74.3 °F 29.77 in SSW 7.0 mph 17.0 mph 68% 0.00 in SCT
14:30 86.1 °F 74.3 °F 29.75 in SSW 8.0 mph 15.0 mph 68% 0.00 in SCT
14:45 86.1 °F 74.7 °F 29.75 in SW 3.0 mph 15.0 mph 69% 0.00 in SCT
15:00 83.5 °F 74.0 °F 29.74 in South 3.0 mph 12.0 mph 73% 0.00 in SCT
15:15 85.0 °F 74.5 °F 29.74 in SW 5.0 mph 10.0 mph 71% 0.00 in BKN
15:30 85.4 °F 74.5 °F 29.74 in South 6.0 mph 12.0 mph 70% 0.00 in BKN
15:45 85.2 °F 73.9 °F 29.75 in SSW 3.0 mph 10.0 mph 69% 0.00 in BKN
16:00 84.7 °F 73.4 °F 29.74 in SW 3.0 mph 16.0 mph 69% 0.00 in BKN
16:15 86.1 °F 73.4 °F 29.74 in SSW 3.0 mph 17.0 mph 66% 0.00 in SCT
16:30 81.9 °F 72.8 °F 29.75 in SSW 9.0 mph 18.0 mph 74% 0.02 in RA
16:45 77.9 °F 72.7 °F 29.74 in Calm   13.0 mph 84% 0.00 in SCT
17:00 75.8 °F 72.3 °F 29.76 in SSW 2.0 mph 14.0 mph 89% 0.16 in RA
17:15 75.1 °F 72.0 °F 29.77 in South 3.0 mph 9.0 mph 90% 0.01 in RA
17:30 75.0 °F 72.2 °F 29.77 in SSW 5.0 mph 10.0 mph 91% 0.00 in BKN
17:45 74.0 °F 70.5 °F 29.81 in SE 2.0 mph 12.0 mph 89% 0.06 in RA
18:00 71.2 °F 68.4 °F 29.81 in South 1.0 mph 8.0 mph 91% 0.00 in BKN
18:15 70.7 °F 68.6 °F 29.80 in Calm   5.0 mph 93% 0.01 in RA
18:30 70.6 °F 68.8 °F 29.81 in SSW 1.0 mph 4.0 mph 94% 0.01 in RA
18:45 70.6 °F 69.1 °F 29.81 in Calm   4.0 mph 95% 0.01 in RA
19:00 70.3 °F 68.8 °F 29.80 in Calm   3.0 mph 95% 0.03 in RA
19:15 70.1 °F 68.6 °F 29.82 in South 1.0 mph 5.0 mph 95% 0.04 in RA
19:30 70.0 °F 68.8 °F 29.83 in Calm   4.0 mph 96% 0.02 in RA
19:45 70.2 °F 69.0 °F 29.84 in SSW 1.0 mph 7.0 mph 96% 0.01 in BKN
20:00 69.5 °F 68.3 °F 29.84 in South 1.0 mph 8.0 mph 96% 0.00 in BKN
20:15 69.2 °F 68.0 °F 29.85 in SSW 5.0 mph 12.0 mph 96% 0.02 in RA
20:30 68.7 °F 67.5 °F 29.84 in SSW 2.0 mph 12.0 mph 96% 0.03 in RA
20:45 68.6 °F 67.4 °F 29.85 in SSW 2.0 mph 7.0 mph 96% 0.00 in OVC
21:00 68.6 °F 67.4 °F 29.84 in Calm   5.0 mph 96% 0.00 in OVC
21:15 68.6 °F 67.4 °F 29.85 in SSW 1.0 mph 6.0 mph 96% 0.00 in OVC
21:30 68.6 °F 67.4 °F 29.85 in SSW 2.0 mph 7.0 mph 96% 0.00 in OVC
21:45 68.7 °F 67.5 °F 29.87 in Calm   5.0 mph 96% 0.01 in OVC
22:00 68.6 °F 67.7 °F 29.87 in SSW 2.0 mph 12.0 mph 97% 0.00 in OVC
22:15 68.6 °F 67.4 °F 29.87 in SW 6.0 mph 12.0 mph 96% 0.00 in OVC
22:30 68.6 °F 67.4 °F 29.87 in SSW 2.0 mph 12.0 mph 96% 0.00 in OVC
22:45 68.7 °F 67.5 °F 29.87 in Calm   8.0 mph 96% 0.00 in OVC
23:00 69.0 °F 67.8 °F 29.88 in South 2.0 mph 6.0 mph 96% 0.00 in OVC
23:15 69.1 °F 67.9 °F 29.88 in SSW 2.0 mph 5.0 mph 96% 0.00 in -RA
23:30 69.1 °F 67.9 °F 29.87 in SW 2.0 mph 9.0 mph 96% 0.00 in -RA
23:45 69.2 °F 68.0 °F 29.88 in SSW 3.0 mph 10.0 mph 96% 0.00 in -RA
TarryTown NY Weather
Compliments of Weather Underground - 1.5 mb